Time;durP1;ratioP1;P1;durP2;ratioP2;P2;SDS_P1;SDS_P2;PMS_P1;PMS_P2;Temp;Humidity;BMP_temperature;BMP_pressure;BME280_temperature;BME280_humidity;BME280_pressure;Samples;Min_cycle;Max_cycle;Signal;HPM_P1;HPM_P2
2022/11/01 00:00:37;;;;;;;8.00;5.40;;;15.50;82.90;;;;;;5098894;28;20430;-69
2022/11/01 00:03:04;;;;;;;8.52;5.55;;;15.50;83.00;;;;;;5104541;28;20408;-70
2022/11/01 00:05:32;;;;;;;8.48;5.57;;;15.50;82.80;;;;;;5084498;28;20431;-69
2022/11/01 00:07:59;;;;;;;7.43;5.80;;;15.60;82.10;;;;;;5090736;28;20768;-69
2022/11/01 00:10:25;;;;;;;6.18;4.88;;;15.60;81.70;;;;;;5090261;28;20436;-69
2022/11/01 00:12:52;;;;;;;6.60;5.60;;;15.60;80.70;;;;;;5096206;28;20426;-68
2022/11/01 00:15:19;;;;;;;6.20;5.60;;;15.70;81.20;;;;;;5090660;28;20429;-69
2022/11/01 00:17:46;;;;;;;7.28;5.57;;;15.70;80.60;;;;;;5094783;28;20441;-69
2022/11/01 00:20:12;;;;;;;7.85;5.13;;;15.70;80.50;;;;;;5087160;28;20463;-69
2022/11/01 00:22:40;;;;;;;6.68;5.40;;;15.80;80.30;;;;;;5091455;28;20410;-69
2022/11/01 00:25:08;;;;;;;7.55;4.70;;;15.80;80.10;;;;;;5088650;28;20433;-69
2022/11/01 00:27:35;;;;;;;9.23;4.93;;;15.80;79.40;;;;;;5088323;28;20930;-69
2022/11/01 00:30:01;;;;;;;6.43;4.75;;;15.80;80.50;;;;;;5091425;28;20437;-70
2022/11/01 00:32:28;;;;;;;8.20;5.30;;;15.80;82.00;;;;;;5094057;28;20431;-69
2022/11/01 00:34:55;;;;;;;7.40;5.28;;;15.80;82.40;;;;;;5088031;28;20436;-68
2022/11/01 00:37:22;;;;;;;8.27;5.40;;;15.80;82.70;;;;;;5089405;28;20429;-69
2022/11/01 00:39:50;;;;;;;9.40;5.73;;;15.80;82.40;;;;;;5083515;28;20437;-69
2022/11/01 00:42:16;;;;;;;6.68;5.07;;;15.80;84.30;;;;;;5089572;28;20417;-68
2022/11/01 00:44:43;;;;;;;8.35;5.30;;;15.70;83.40;;;;;;5089197;28;20430;-68
2022/11/01 00:47:10;;;;;;;6.57;5.27;;;15.70;84.10;;;;;;5096231;28;20446;-68
2022/11/01 00:49:37;;;;;;;7.23;5.30;;;15.70;84.50;;;;;;5088202;28;20533;-68
2022/11/01 00:52:03;;;;;;;6.67;5.30;;;15.70;84.30;;;;;;5097584;28;20486;-69
2022/11/01 00:54:30;;;;;;;6.73;5.00;;;15.70;86.10;;;;;;5089411;28;20439;-69
2022/11/01 00:56:58;;;;;;;7.07;5.03;;;15.60;86.70;;;;;;5084564;28;20426;-69
2022/11/01 00:59:25;;;;;;;7.53;5.60;;;15.60;86.90;;;;;;5100777;28;20423;-69
2022/11/01 01:01:52;;;;;;;8.20;5.30;;;15.50;87.00;;;;;;5091389;28;20430;-68
2022/11/01 01:04:19;;;;;;;6.93;5.10;;;15.50;87.20;;;;;;5087450;28;20426;-69
2022/11/01 01:06:45;;;;;;;10.10;6.00;;;15.40;87.90;;;;;;5094530;28;20542;-69
2022/11/01 01:09:12;;;;;;;7.03;5.38;;;15.40;88.60;;;;;;5094027;28;20424;-69
2022/11/01 01:11:39;;;;;;;9.15;5.57;;;15.30;88.60;;;;;;5085657;28;20425;-69
2022/11/01 01:14:07;;;;;;;7.78;6.15;;;15.30;88.30;;;;;;5090112;28;20545;-69
2022/11/01 01:16:34;;;;;;;6.47;5.40;;;15.30;88.10;;;;;;5090413;28;20441;-70
2022/11/01 01:19:01;;;;;;;7.28;5.45;;;15.30;88.50;;;;;;5084487;28;20422;-70
2022/11/01 01:21:27;;;;;;;7.95;5.40;;;15.30;88.10;;;;;;5093061;28;20428;-69
2022/11/01 01:23:54;;;;;;;8.15;6.05;;;15.40;88.30;;;;;;5088706;28;20441;-69
2022/11/01 01:26:21;;;;;;;7.68;5.45;;;15.40;88.20;;;;;;5089353;28;20483;-70
2022/11/01 01:28:47;;;;;;;6.90;5.40;;;15.40;87.40;;;;;;5084716;28;20429;-69
2022/11/01 01:31:16;;;;;;;6.60;5.85;;;15.50;87.60;;;;;;5086180;28;20430;-71
2022/11/01 01:33:42;;;;;;;8.43;5.53;;;15.50;87.30;;;;;;5086586;28;20432;-70
2022/11/01 01:36:09;;;;;;;7.18;5.22;;;15.50;87.00;;;;;;5093872;28;20430;-70
2022/11/01 01:38:36;;;;;;;7.18;5.07;;;15.50;87.80;;;;;;5091366;28;20429;-68
2022/11/01 01:43:44;;;;;;;9.38;5.43;;;15.50;87.30;;;;;;5084055;28;20777;-69
2022/11/01 01:46:11;;;;;;;8.05;5.28;;;15.60;87.30;;;;;;5091688;28;20438;-68
2022/11/01 01:48:41;;;;;;;7.45;5.10;;;15.60;86.70;;;;;;5096458;28;20420;-68
2022/11/01 01:51:11;;;;;;;5.85;4.93;;;15.70;86.50;;;;;;5093294;28;21094;-68
2022/11/01 01:53:43;;;;;;;8.07;5.30;;;15.70;86.30;;;;;;5099192;28;20432;-70
2022/11/01 01:56:14;;;;;;;8.13;4.53;;;15.70;87.10;;;;;;5084400;28;20430;-68
2022/11/01 01:58:47;;;;;;;7.78;5.40;;;15.60;86.70;;;;;;5084555;28;20430;-69
2022/11/01 02:01:13;;;;;;;10.30;5.30;;;15.70;87.00;;;;;;5082232;28;20777;-69
2022/11/01 02:03:43;;;;;;;8.32;5.20;;;15.70;87.10;;;;;;5088781;28;20924;-69
2022/11/01 02:06:12;;;;;;;6.72;4.57;;;15.70;87.50;;;;;;5082564;28;20430;-69
2022/11/01 02:08:41;;;;;;;6.05;4.85;;;15.80;88.10;;;;;;5090743;28;20424;-69
2022/11/01 02:11:11;;;;;;;6.03;4.70;;;15.80;88.00;;;;;;5086323;28;20429;-68
2022/11/01 02:13:37;;;;;;;6.90;5.57;;;15.80;88.00;;;;;;5087368;28;20417;-68
2022/11/01 02:16:34;;;;;;;6.97;4.88;;;15.90;87.80;;;;;;5090228;28;20521;-68
2022/11/01 02:19:24;;;;;;;8.40;4.97;;;15.90;87.10;;;;;;5093655;28;20427;-68
2022/11/01 02:22:00;;;;;;;5.90;4.20;;;16.00;87.70;;;;;;5086256;28;20426;-68
2022/11/01 02:24:58;;;;;;;7.03;4.90;;;16.00;87.30;;;;;;5093621;28;20430;-68
2022/11/01 02:27:31;;;;;;;5.82;4.20;;;16.10;87.60;;;;;;5080289;28;20409;-68
2022/11/01 02:30:17;;;;;;;5.20;4.20;;;16.10;87.20;;;;;;5096680;28;20437;-68
2022/11/01 02:33:13;;;;;;;7.40;4.53;;;16.10;87.40;;;;;;5092931;28;20503;-68
2022/11/01 02:35:48;;;;;;;4.80;4.40;;;16.20;87.10;;;;;;5082894;28;20487;-70
2022/11/01 02:38:21;;;;;;;4.60;3.75;;;16.20;87.00;;;;;;5086792;28;20432;-69
2022/11/01 02:40:58;;;;;;;6.20;5.10;;;16.20;86.90;;;;;;5087613;28;20433;-69
2022/11/01 02:43:30;;;;;;;5.43;4.53;;;16.20;87.50;;;;;;5092639;28;20424;-69
2022/11/01 02:46:59;;;;;;;7.03;4.85;;;16.10;87.70;;;;;;5090773;28;20426;-69
2022/11/01 02:48:47;;;;;;;7.90;4.90;;;16.10;88.00;;;;;;5081538;28;20423;-68
2022/11/01 02:51:16;;;;;;;6.88;4.80;;;16.20;88.20;;;;;;5084008;28;20434;-69
2022/11/01 02:53:42;;;;;;;6.57;4.78;;;16.20;88.20;;;;;;5089918;28;20429;-69
2022/11/01 02:56:10;;;;;;;6.65;4.30;;;16.20;88.10;;;;;;5090404;28;20457;-68
2022/11/01 02:58:37;;;;;;;6.32;4.10;;;16.10;87.70;;;;;;5085451;28;20430;-68
2022/11/01 03:01:13;;;;;;;6.07;4.67;;;16.20;87.50;;;;;;5088671;28;20526;-68
2022/11/01 03:03:44;;;;;;;5.40;3.80;;;16.30;87.60;;;;;;5094042;28;20522;-68
2022/11/01 03:06:18;;;;;;;5.13;4.00;;;16.30;87.00;;;;;;5085924;28;20424;-68
2022/11/01 03:08:48;;;;;;;5.03;3.78;;;16.40;87.30;;;;;;5110348;22;20444;-73
2022/11/01 03:11:17;;;;;;;5.45;3.67;;;16.40;86.70;;;;;;5097713;28;20799;-74
2022/11/01 03:13:57;;;;;;;5.20;3.80;;;16.40;86.80;;;;;;5084832;28;20425;-77
2022/11/01 03:16:30;;;;;;;4.40;3.53;;;16.40;86.80;;;;;;5086688;28;20433;-75
2022/11/01 03:19:07;;;;;;;5.47;3.97;;;16.50;86.10;;;;;;5084838;28;21139;-74
2022/11/01 03:21:40;;;;;;;5.10;3.70;;;16.60;85.20;;;;;;5087929;28;20421;-74
2022/11/01 03:24:15;;;;;;;5.27;3.70;;;16.60;85.40;;;;;;5086371;28;20511;-75
2022/11/01 03:26:43;;;;;;;5.97;3.67;;;16.70;85.20;;;;;;5087762;28;20454;-75
2022/11/01 03:29:12;;;;;;;5.03;3.33;;;16.70;85.20;;;;;;5091685;28;20435;-75
2022/11/01 03:31:41;;;;;;;4.30;3.20;;;16.70;84.40;;;;;;5101780;28;20476;-74
2022/11/01 03:34:16;;;;;;;4.13;3.40;;;16.80;84.00;;;;;;5089609;28;20421;-74
2022/11/01 03:36:48;;;;;;;3.50;3.10;;;16.90;83.90;;;;;;5081722;28;20521;-75
2022/11/01 03:39:19;;;;;;;4.20;3.20;;;16.90;84.10;;;;;;5083556;28;20516;-75
2022/11/01 03:41:50;;;;;;;4.93;3.30;;;16.90;84.10;;;;;;5085835;28;20430;-75
2022/11/01 03:44:19;;;;;;;4.25;2.95;;;16.90;84.30;;;;;;5079108;28;20465;-76
2022/11/01 03:46:46;;;;;;;4.35;3.45;;;16.90;84.70;;;;;;5081247;28;20433;-76
2022/11/01 03:49:16;;;;;;;4.45;3.42;;;16.80;84.80;;;;;;5077873;28;20623;-76
2022/11/01 03:51:45;;;;;;;5.72;4.00;;;16.80;84.90;;;;;;5087094;28;20430;-75
2022/11/01 03:54:11;;;;;;;4.50;3.40;;;16.80;84.80;;;;;;5085922;28;20433;-76
2022/11/01 03:56:39;;;;;;;5.05;3.50;;;16.80;85.30;;;;;;5083000;28;20436;-74
2022/11/01 03:59:06;;;;;;;3.70;3.28;;;16.80;85.10;;;;;;5084709;28;20962;-76
2022/11/01 04:01:34;;;;;;;6.13;3.90;;;16.80;85.00;;;;;;5086794;28;20422;-76
2022/11/01 04:04:01;;;;;;;6.63;3.95;;;16.80;85.10;;;;;;5078186;28;20432;-77
2022/11/01 04:06:28;;;;;;;4.68;3.60;;;16.80;85.30;;;;;;5087612;28;20426;-77
2022/11/01 04:08:58;;;;;;;6.80;3.43;;;16.70;85.40;;;;;;5100657;28;20517;-75
2022/11/01 04:11:24;;;;;;;5.55;3.92;;;16.70;85.30;;;;;;5108939;28;20418;-77
2022/11/01 04:13:51;;;;;;;4.93;3.50;;;16.80;85.90;;;;;;5108940;28;20426;-75
2022/11/01 04:21:46;;;;;;;5.68;3.30;;;16.80;85.00;;;;;;5105298;28;20429;-74
2022/11/01 04:24:19;;;;;;;5.90;3.60;;;16.80;85.10;;;;;;5087486;28;20433;-75
2022/11/01 04:26:46;;;;;;;4.82;3.20;;;16.70;85.50;;;;;;5105876;28;20440;-78
2022/11/01 04:29:13;;;;;;;5.80;3.60;;;16.70;85.70;;;;;;5101312;28;20452;-74
2022/11/01 04:31:40;;;;;;;5.80;3.70;;;16.70;85.90;;;;;;5106168;28;20486;-74
2022/11/01 04:34:06;;;;;;;5.60;3.42;;;16.60;86.50;;;;;;5095158;28;20444;-74
2022/11/01 04:36:33;;;;;;;4.40;3.30;;;16.60;86.80;;;;;;5097254;28;20914;-73
2022/11/01 04:39:00;;;;;;;4.47;3.50;;;16.50;86.90;;;;;;5095547;28;20430;-75
2022/11/01 04:41:29;;;;;;;5.68;3.35;;;16.50;86.90;;;;;;5087860;28;20429;-76
2022/11/01 04:43:59;;;;;;;4.80;3.70;;;16.50;86.90;;;;;;5086436;28;21079;-75
2022/11/01 04:46:29;;;;;;;4.97;3.78;;;16.50;87.10;;;;;;5086720;28;20947;-75
2022/11/01 04:48:56;;;;;;;5.60;3.78;;;16.50;87.20;;;;;;5085902;28;20430;-72
2022/11/01 04:51:23;;;;;;;4.45;3.40;;;16.40;87.30;;;;;;5086882;28;20475;-75
2022/11/01 04:53:49;;;;;;;4.93;3.45;;;16.40;87.00;;;;;;5084713;28;20422;-73
2022/11/01 04:56:16;;;;;;;4.43;3.25;;;16.50;87.40;;;;;;5089996;28;20417;-75
2022/11/01 04:58:44;;;;;;;3.70;3.30;;;16.50;87.10;;;;;;5090483;28;20433;-76
2022/11/01 05:01:11;;;;;;;4.95;4.10;;;16.50;87.10;;;;;;5085927;28;20865;-76
2022/11/01 05:03:38;;;;;;;5.45;3.20;;;16.50;86.90;;;;;;5089075;28;20434;-76
2022/11/01 05:06:05;;;;;;;5.97;3.25;;;16.50;87.00;;;;;;5090800;28;20437;-76
2022/11/01 05:08:32;;;;;;;5.30;3.30;;;16.50;86.90;;;;;;5093118;28;20433;-76
2022/11/01 05:10:59;;;;;;;3.53;3.20;;;16.50;86.90;;;;;;5084699;28;20436;-76
2022/11/01 05:13:25;;;;;;;4.53;3.45;;;16.50;86.80;;;;;;5103540;28;20425;-77
2022/11/01 05:15:53;;;;;;;6.45;3.53;;;16.50;86.70;;;;;;5092071;28;20426;-75
2022/11/01 05:18:20;;;;;;;4.47;2.85;;;16.50;86.40;;;;;;5111167;28;20409;-74
2022/11/01 05:20:47;;;;;;;5.50;3.50;;;16.50;86.40;;;;;;5111521;28;20432;-75
2022/11/01 05:23:14;;;;;;;5.10;3.20;;;16.50;86.50;;;;;;5096608;28;20479;-76
2022/11/01 05:25:40;;;;;;;4.93;3.60;;;16.50;86.60;;;;;;5089925;28;20425;-74
2022/11/01 05:28:10;;;;;;;8.15;3.80;;;16.50;86.00;;;;;;5089901;28;20927;-76
2022/11/01 05:30:38;;;;;;;5.57;3.50;;;16.60;85.70;;;;;;5083045;28;20942;-75
2022/11/01 05:33:07;;;;;;;5.70;3.30;;;16.60;85.60;;;;;;5089369;28;20437;-74
2022/11/01 05:35:35;;;;;;;4.63;3.40;;;16.60;85.40;;;;;;5084066;28;20437;-76
2022/11/01 05:38:02;;;;;;;4.53;3.30;;;16.50;84.90;;;;;;5090584;28;20410;-76
2022/11/01 05:40:30;;;;;;;6.10;3.50;;;16.50;85.30;;;;;;5091320;28;20429;-76
2022/11/01 05:42:57;;;;;;;6.10;3.90;;;16.40;85.70;;;;;;5076515;28;20796;-75
2022/11/01 05:45:25;;;;;;;4.50;3.13;;;16.40;85.70;;;;;;5089484;28;20434;-75
2022/11/01 05:47:52;;;;;;;5.80;3.20;;;16.40;86.40;;;;;;5094716;28;20451;-75
2022/11/01 05:50:20;;;;;;;5.18;3.20;;;16.30;86.50;;;;;;5107784;28;20438;-74
2022/11/01 05:52:48;;;;;;;4.20;3.47;;;16.30;85.80;;;;;;5088884;28;20795;-75
2022/11/01 05:55:15;;;;;;;5.00;3.20;;;16.30;85.40;;;;;;5090231;28;20503;-75
2022/11/01 05:57:42;;;;;;;4.40;3.20;;;16.30;84.20;;;;;;5086229;28;20434;-76
2022/11/01 06:00:10;;;;;;;4.18;3.10;;;16.30;82.80;;;;;;5086253;28;20432;-75
2022/11/01 06:02:37;;;;;;;2.88;2.53;;;16.40;81.20;;;;;;5081844;28;20502;-76
2022/11/01 06:05:03;;;;;;;4.53;2.40;;;16.40;79.70;;;;;;5090852;28;21057;-73
2022/11/01 06:07:34;;;;;;;4.50;2.58;;;16.50;79.10;;;;;;5089682;28;20426;-77
2022/11/01 06:10:01;;;;;;;4.70;2.40;;;16.40;78.00;;;;;;5082187;28;20435;-76
2022/11/01 06:12:27;;;;;;;3.13;2.50;;;16.50;77.40;;;;;;5086835;28;21058;-74
2022/11/01 06:14:54;;;;;;;3.88;2.28;;;16.50;75.60;;;;;;5086838;28;20422;-73
2022/11/01 06:17:21;;;;;;;3.30;2.17;;;16.50;75.10;;;;;;5084145;28;20425;-75
2022/11/01 06:19:48;;;;;;;3.05;1.67;;;16.60;72.10;;;;;;5084616;28;20434;-73
2022/11/01 06:22:15;;;;;;;4.20;1.90;;;16.60;70.60;;;;;;5087614;28;20434;-75
2022/11/01 06:24:43;;;;;;;2.90;1.90;;;16.70;70.20;;;;;;5088057;28;20500;-73
2022/11/01 06:27:09;;;;;;;2.65;1.60;;;16.70;69.70;;;;;;5100462;28;20417;-73
2022/11/01 06:29:36;;;;;;;3.03;1.90;;;16.70;69.80;;;;;;5094028;28;20429;-73
2022/11/01 06:32:04;;;;;;;3.85;1.65;;;16.70;67.10;;;;;;5102514;28;20406;-72
2022/11/01 06:34:31;;;;;;;2.17;1.80;;;16.70;66.80;;;;;;5104677;28;20418;-72
2022/11/01 06:36:58;;;;;;;2.80;1.50;;;16.60;66.00;;;;;;5114088;28;20436;-72
2022/11/01 06:39:25;;;;;;;3.17;1.67;;;16.60;65.30;;;;;;5100973;28;20414;-74
2022/11/01 06:41:54;;;;;;;1.92;1.30;;;16.60;63.30;;;;;;5084469;28;20435;-74
2022/11/01 06:44:21;;;;;;;2.40;1.20;;;16.50;63.70;;;;;;5083821;28;20887;-73
2022/11/01 06:46:48;;;;;;;1.80;1.13;;;16.50;63.20;;;;;;5087164;28;20433;-73
2022/11/01 06:49:14;;;;;;;2.40;1.40;;;16.50;62.20;;;;;;5086340;28;20429;-73
2022/11/01 06:51:41;;;;;;;2.10;1.10;;;16.40;62.50;;;;;;5087963;28;20834;-75
2022/11/01 06:54:08;;;;;;;2.78;1.30;;;16.40;62.50;;;;;;5087749;28;20430;-74
2022/11/01 06:56:34;;;;;;;1.90;1.30;;;16.30;63.20;;;;;;5083997;28;20433;-76
2022/11/01 06:59:03;;;;;;;2.35;1.20;;;16.30;62.60;;;;;;5088392;28;20422;-74
2022/11/01 07:01:29;;;;;;;1.90;1.10;;;16.20;62.90;;;;;;5086485;28;20425;-74
2022/11/01 07:03:56;;;;;;;2.30;1.20;;;16.20;63.00;;;;;;5088744;28;20433;-74
2022/11/01 07:06:27;;;;;;;3.87;1.60;;;16.10;63.10;;;;;;5083148;28;20894;-74
2022/11/01 07:08:54;;;;;;;1.75;1.30;;;16.10;63.30;;;;;;5088612;28;20429;-76
2022/11/01 07:11:21;;;;;;;2.40;1.30;;;16.10;63.30;;;;;;5084982;28;20437;-76
2022/11/01 07:13:47;;;;;;;2.00;1.40;;;16.00;63.90;;;;;;5095869;28;20783;-76
2022/11/01 07:16:16;;;;;;;3.05;1.50;;;15.90;64.00;;;;;;5092587;28;20435;-77
2022/11/01 07:18:44;;;;;;;4.05;1.80;;;15.90;64.50;;;;;;5102432;28;20418;-76
2022/11/01 07:21:11;;;;;;;3.30;1.38;;;15.80;64.90;;;;;;5099188;28;20459;-75
2022/11/01 07:23:38;;;;;;;2.70;1.30;;;15.80;64.70;;;;;;5088472;28;20951;-75
2022/11/01 07:26:04;;;;;;;2.30;1.10;;;15.70;65.10;;;;;;5084631;28;20429;-76
2022/11/01 07:28:31;;;;;;;3.30;1.20;;;15.60;65.30;;;;;;5088064;28;20413;-75
2022/11/01 07:30:58;;;;;;;4.00;1.27;;;15.60;65.90;;;;;;5085016;28;20432;-76
2022/11/01 07:33:26;;;;;;;3.45;1.35;;;15.50;66.20;;;;;;5088843;28;20421;-75
2022/11/01 07:35:53;;;;;;;2.63;1.20;;;15.40;65.80;;;;;;5086440;28;20803;-74
2022/11/01 07:38:20;;;;;;;2.70;1.27;;;15.40;65.80;;;;;;5082238;28;20426;-76
2022/11/01 07:40:48;;;;;;;2.78;1.17;;;15.40;66.20;;;;;;5090716;28;20437;-75
2022/11/01 07:43:16;;;;;;;3.10;1.20;;;15.30;66.30;;;;;;5092489;28;20430;-78
2022/11/01 07:45:43;;;;;;;1.98;1.25;;;15.30;66.70;;;;;;5085837;28;20503;-74
2022/11/01 07:48:12;;;;;;;4.07;1.55;;;15.30;66.40;;;;;;5085613;28;20915;-73
2022/11/01 07:50:41;;;;;;;3.85;1.48;;;15.30;65.90;;;;;;5086171;28;20436;-75
2022/11/01 07:53:10;;;;;;;3.30;1.50;;;15.30;65.10;;;;;;5083220;28;20429;-74
2022/11/01 07:55:38;;;;;;;4.13;1.55;;;15.20;64.90;;;;;;5084821;28;20432;-76
2022/11/01 07:58:05;;;;;;;2.80;1.30;;;15.30;64.80;;;;;;5085098;28;20434;-75
2022/11/01 08:00:32;;;;;;;3.28;1.20;;;15.40;63.90;;;;;;5083299;28;20433;-75
2022/11/01 08:03:03;;;;;;;2.95;1.20;;;15.50;63.20;;;;;;5081780;28;20434;-75
2022/11/01 08:05:30;;;;;;;3.90;1.02;;;15.70;61.60;;;;;;5083265;28;20441;-75
2022/11/01 08:07:59;;;;;;;2.80;0.90;;;15.80;59.80;;;;;;5088585;28;20437;-75
2022/11/01 08:10:27;;;;;;;2.97;1.40;;;15.90;58.90;;;;;;5085478;28;20439;-72
2022/11/01 08:13:00;;;;;;;4.63;1.60;;;15.90;58.90;;;;;;5086201;28;21228;-71
2022/11/01 08:15:27;;;;;;;3.28;1.27;;;15.90;57.40;;;;;;5085038;28;20434;-72
2022/11/01 08:17:55;;;;;;;2.25;1.10;;;15.80;57.20;;;;;;5087125;28;20852;-74
2022/11/01 08:20:21;;;;;;;5.93;1.98;;;15.90;57.50;;;;;;5083488;28;20915;-73
2022/11/01 08:22:48;;;;;;;5.32;1.40;;;16.00;55.40;;;;;;5087306;28;20414;-72
2022/11/01 08:25:17;;;;;;;6.47;1.90;;;16.10;55.20;;;;;;5093595;28;20436;-78
2022/11/01 08:27:43;;;;;;;5.38;1.67;;;16.10;54.20;;;;;;5086923;28;21057;-76
2022/11/01 08:30:11;;;;;;;5.20;1.38;;;16.10;54.40;;;;;;5085602;28;20429;-76
2022/11/01 08:32:38;;;;;;;4.90;1.57;;;16.20;53.30;;;;;;5093859;28;20422;-74
2022/11/01 08:35:05;;;;;;;4.63;1.80;;;16.20;53.40;;;;;;5103480;28;20493;-73
2022/11/01 08:37:32;;;;;;;4.00;1.30;;;16.30;53.30;;;;;;5095159;28;20434;-76
2022/11/01 08:39:59;;;;;;;4.35;1.50;;;16.30;53.00;;;;;;5094074;28;20460;-74
2022/11/01 08:42:27;;;;;;;6.18;1.90;;;16.30;53.00;;;;;;5097262;28;20544;-76
2022/11/01 08:44:53;;;;;;;7.20;2.13;;;16.30;52.30;;;;;;5093417;28;20426;-74
2022/11/01 08:47:21;;;;;;;3.78;1.70;;;16.30;52.50;;;;;;5092779;28;20433;-76
2022/11/01 08:49:47;;;;;;;5.13;1.80;;;16.30;52.60;;;;;;5089340;28;20429;-73
2022/11/01 08:52:14;;;;;;;5.43;1.63;;;16.30;52.90;;;;;;5088034;28;20440;-76
2022/11/01 08:54:41;;;;;;;4.70;1.70;;;16.40;51.30;;;;;;5083943;28;20919;-75
2022/11/01 08:57:08;;;;;;;4.60;1.60;;;16.40;51.20;;;;;;5089628;28;20425;-76
2022/11/01 08:59:36;;;;;;;5.13;1.60;;;16.40;52.00;;;;;;5082864;28;20533;-76
2022/11/01 09:02:03;;;;;;;5.43;1.65;;;16.50;51.00;;;;;;5085973;28;20436;-75
2022/11/01 09:04:29;;;;;;;4.97;1.80;;;16.70;51.70;;;;;;5088557;28;20434;-75
2022/11/01 09:06:56;;;;;;;3.60;1.50;;;17.00;49.70;;;;;;5089979;28;20433;-76
2022/11/01 09:09:23;;;;;;;4.05;1.50;;;17.10;49.80;;;;;;5088591;28;20429;-75
2022/11/01 09:11:50;;;;;;;4.40;1.50;;;17.20;48.10;;;;;;5085370;28;20433;-74
2022/11/01 09:14:17;;;;;;;3.17;1.55;;;17.30;48.80;;;;;;5090918;28;20432;-75
2022/11/01 09:16:45;;;;;;;4.55;1.70;;;17.50;48.70;;;;;;5090713;28;20417;-76
2022/11/01 09:19:11;;;;;;;5.75;1.75;;;17.60;47.20;;;;;;5081781;28;20438;-75
2022/11/01 09:21:38;;;;;;;4.25;1.60;;;17.50;47.80;;;;;;5086393;28;20413;-77
2022/11/01 09:24:05;;;;;;;4.00;1.30;;;17.50;48.10;;;;;;5090056;28;20422;-77
2022/11/01 09:26:32;;;;;;;4.13;1.45;;;17.70;47.10;;;;;;5089445;28;20433;-75
2022/11/01 09:28:59;;;;;;;4.88;1.60;;;17.90;46.50;;;;;;5090435;28;20433;-76
2022/11/01 09:31:27;;;;;;;4.90;1.40;;;18.20;46.50;;;;;;5088489;28;21083;-76
2022/11/01 09:33:56;;;;;;;4.20;1.50;;;18.40;45.60;;;;;;5090888;28;20432;-77
2022/11/01 09:36:24;;;;;;;4.40;1.33;;;18.20;44.50;;;;;;5094633;28;20418;-76
2022/11/01 09:38:51;;;;;;;5.00;1.60;;;18.10;45.60;;;;;;5106189;28;20430;-75
2022/11/01 09:41:27;;;;;;;5.80;1.50;;;18.20;44.40;;;;;;5107586;28;20414;-73
2022/11/01 09:43:56;;;;;;;3.55;1.30;;;18.00;45.20;;;;;;5098601;28;20900;-74
2022/11/01 09:46:26;;;;;;;5.85;1.50;;;17.90;45.70;;;;;;5091792;28;20422;-76
2022/11/01 09:48:56;;;;;;;4.90;1.50;;;17.90;44.80;;;;;;5091518;28;20425;-74
2022/11/01 09:51:24;;;;;;;4.38;1.35;;;17.90;46.00;;;;;;5090755;28;20410;-75
2022/11/01 09:53:54;;;;;;;3.93;1.40;;;18.30;45.80;;;;;;5087838;28;20429;-76
2022/11/01 09:56:26;;;;;;;4.07;1.50;;;18.70;43.80;;;;;;5085279;28;20430;-76
2022/11/01 09:59:01;;;;;;;4.27;1.57;;;18.70;44.40;;;;;;5080033;28;20433;-75
2022/11/01 10:01:52;;;;;;;3.97;1.27;;;18.70;43.10;;;;;;5088178;28;20548;-73
2022/11/01 10:04:32;;;;;;;2.90;1.30;;;18.80;43.00;;;;;;5079122;28;20422;-75
2022/11/01 10:07:05;;;;;;;3.97;1.10;;;18.60;43.90;;;;;;5086040;28;20433;-75
2022/11/01 10:09:42;;;;;;;3.83;1.48;;;18.80;43.30;;;;;;5084929;28;20434;-75
2022/11/01 10:12:20;;;;;;;6.13;1.60;;;18.80;44.20;;;;;;5087959;28;20436;-75
2022/11/01 10:15:15;;;;;;;3.92;1.10;;;18.80;43.50;;;;;;5086136;28;20434;-75
2022/11/01 10:17:49;;;;;;;2.67;1.25;;;18.80;44.50;;;;;;5080917;28;20955;-69
2022/11/01 10:20:19;;;;;;;3.13;1.50;;;18.90;47.10;;;;;;5087830;28;20455;-69
2022/11/01 10:22:49;;;;;;;4.60;1.20;;;19.00;46.80;;;;;;5082745;28;20426;-70
2022/11/01 10:25:22;;;;;;;3.35;1.50;;;19.40;46.10;;;;;;5083532;28;20454;-69
2022/11/01 10:28:05;;;;;;;3.15;1.38;;;19.90;46.00;;;;;;5078950;28;20424;-68
2022/11/01 10:30:37;;;;;;;3.38;1.00;;;20.10;45.90;;;;;;5084665;28;20417;-67
2022/11/01 10:33:25;;;;;;;3.38;1.20;;;20.00;45.80;;;;;;5088877;28;20461;-68
2022/11/01 10:35:57;;;;;;;5.03;1.23;;;19.80;46.10;;;;;;5087605;28;20930;-68
2022/11/01 10:38:34;;;;;;;2.67;1.00;;;19.80;46.40;;;;;;5086481;28;20958;-67
2022/11/01 10:41:11;;;;;;;3.50;1.10;;;20.00;45.20;;;;;;5081195;28;20422;-67
2022/11/01 10:43:41;;;;;;;3.70;1.10;;;20.10;42.70;;;;;;5080951;28;20907;-67
2022/11/01 10:46:13;;;;;;;3.85;1.23;;;20.10;43.00;;;;;;5089889;28;20414;-68
2022/11/01 10:48:45;;;;;;;4.50;1.40;;;20.20;43.20;;;;;;5085162;28;20429;-67
2022/11/01 10:51:16;;;;;;;4.40;1.40;;;20.20;43.30;;;;;;5085786;28;20430;-67
2022/11/01 10:53:46;;;;;;;3.78;1.33;;;20.20;42.10;;;;;;5086961;28;20447;-67
2022/11/01 10:56:18;;;;;;;4.88;1.10;;;20.00;42.00;;;;;;5084518;28;21264;-68
2022/11/01 10:58:49;;;;;;;4.20;1.40;;;19.70;42.00;;;;;;5089625;28;20437;-68
2022/11/01 11:01:20;;;;;;;2.10;0.80;;;19.30;43.20;;;;;;5087107;28;20915;-67
2022/11/01 11:03:48;;;;;;;2.33;1.10;;;19.10;43.80;;;;;;5098414;28;20402;-76
2022/11/01 11:06:17;;;;;;;2.92;1.05;;;18.90;43.90;;;;;;5102478;28;20423;-74
2022/11/01 11:08:50;;;;;;;3.20;1.30;;;18.70;44.30;;;;;;5086194;28;20433;-75
2022/11/01 11:11:18;;;;;;;2.58;1.15;;;18.80;45.20;;;;;;5081354;28;20437;-75
2022/11/01 11:13:49;;;;;;;3.83;1.40;;;19.20;45.10;;;;;;5087269;28;20440;-75
2022/11/01 11:16:23;;;;;;;4.00;1.50;;;19.80;42.70;;;;;;5088827;28;20413;-75
2022/11/01 11:19:18;;;;;;;3.13;1.10;;;20.00;42.50;;;;;;5099806;27;20396;-75
2022/11/01 11:21:47;;;;;;;4.20;1.30;;;20.00;41.70;;;;;;5085284;28;20702;-74
2022/11/01 11:24:19;;;;;;;4.18;1.42;;;19.90;42.10;;;;;;5083098;28;20427;-76
2022/11/01 11:26:48;;;;;;;3.85;1.42;;;20.10;41.60;;;;;;5088109;28;20432;-74
2022/11/01 11:29:35;;;;;;;4.43;1.40;;;20.40;41.10;;;;;;5080773;28;20437;-74
2022/11/01 11:32:03;;;;;;;3.40;1.15;;;20.70;40.90;;;;;;5068912;28;20422;-74
2022/11/01 11:34:34;;;;;;;4.03;1.20;;;20.90;39.60;;;;;;5080823;28;20434;-75
2022/11/01 11:37:02;;;;;;;3.42;1.10;;;20.70;40.20;;;;;;5083042;28;20432;-73
2022/11/01 11:39:30;;;;;;;3.80;1.30;;;20.40;40.60;;;;;;5073821;28;20482;-74
2022/11/01 11:42:11;;;;;;;4.00;1.33;;;20.00;41.10;;;;;;5082275;28;20428;-74
2022/11/01 11:44:41;;;;;;;5.22;1.60;;;19.50;42.50;;;;;;5070547;28;20415;-74
2022/11/01 11:47:21;;;;;;;4.70;1.60;;;19.50;42.80;;;;;;5082655;28;20444;-74
2022/11/01 11:49:52;;;;;;;4.90;1.50;;;19.80;42.70;;;;;;5082097;28;21029;-74
2022/11/01 11:52:21;;;;;;;5.05;1.40;;;20.20;40.90;;;;;;5074907;28;20416;-74
2022/11/01 11:54:49;;;;;;;3.55;1.30;;;20.10;41.50;;;;;;5077559;28;20428;-75
2022/11/01 11:57:19;;;;;;;3.70;1.30;;;20.10;41.70;;;;;;5084357;28;20418;-75
2022/11/01 11:59:51;;;;;;;4.93;1.30;;;20.40;40.60;;;;;;5077678;28;20420;-75
2022/11/01 12:02:21;;;;;;;4.22;1.58;;;20.60;40.70;;;;;;5065594;28;20427;-74
2022/11/01 12:04:55;;;;;;;2.90;1.40;;;21.00;39.10;;;;;;5072443;28;20450;-76
2022/11/01 12:07:28;;;;;;;3.25;1.40;;;21.20;39.00;;;;;;5066476;28;20431;-76
2022/11/01 12:09:56;;;;;;;3.97;1.50;;;21.30;38.70;;;;;;5078258;28;20433;-77
2022/11/01 12:12:25;;;;;;;3.45;1.40;;;21.60;39.00;;;;;;5069599;28;20700;-75
2022/11/01 12:14:52;;;;;;;3.42;1.23;;;21.60;38.10;;;;;;5077134;28;20492;-74
2022/11/01 12:17:43;;;;;;;3.50;1.35;;;21.40;37.60;;;;;;5088220;28;20424;-76
2022/11/01 12:20:16;;;;;;;3.55;1.40;;;21.20;38.60;;;;;;5102090;28;20974;-76
2022/11/01 12:22:48;;;;;;;4.23;1.40;;;21.00;38.50;;;;;;5096964;28;20539;-76
2022/11/01 12:25:18;;;;;;;4.40;1.30;;;20.70;38.50;;;;;;5102545;28;20425;-74
2022/11/01 12:27:53;;;;;;;3.28;1.38;;;20.70;39.30;;;;;;5104408;28;20467;-75
2022/11/01 12:30:23;;;;;;;3.40;1.20;;;20.70;39.40;;;;;;5086412;28;20412;-75
2022/11/01 12:32:52;;;;;;;5.10;1.70;;;20.90;39.50;;;;;;5072862;28;20809;-76
2022/11/01 12:35:28;;;;;;;5.22;1.40;;;21.50;39.40;;;;;;5087446;28;20966;-76
2022/11/01 12:38:23;;;;;;;3.90;1.40;;;22.40;36.90;;;;;;5078610;28;20451;-76
2022/11/01 12:40:52;;;;;;;4.13;1.70;;;23.10;36.00;;;;;;5083332;28;20459;-75
2022/11/01 12:43:22;;;;;;;3.90;1.70;;;22.70;35.90;;;;;;5087524;28;20430;-74
2022/11/01 12:45:56;;;;;;;2.88;1.13;;;22.70;35.90;;;;;;5089998;28;20410;-75
2022/11/01 12:48:28;;;;;;;3.63;1.33;;;23.00;35.60;;;;;;5079934;28;20433;-73
2022/11/01 12:51:00;;;;;;;2.70;1.40;;;23.10;35.60;;;;;;5085950;28;20483;-75
2022/11/01 12:53:30;;;;;;;5.82;1.70;;;23.10;36.20;;;;;;5091810;28;20437;-77
2022/11/01 12:55:57;;;;;;;3.60;1.30;;;23.50;35.70;;;;;;5098786;28;20406;-76
2022/11/01 12:58:26;;;;;;;5.20;1.50;;;23.70;35.00;;;;;;5085450;28;20948;-76
2022/11/01 13:01:04;;;;;;;4.38;1.50;;;23.80;34.70;;;;;;5085349;28;20430;-76
2022/11/01 13:03:43;;;;;;;3.67;1.20;;;24.00;34.20;;;;;;5083004;28;20431;-78
2022/11/01 13:06:38;;;;;;;3.55;1.50;;;23.90;34.10;;;;;;5093951;28;20537;-77
2022/11/01 13:09:10;;;;;;;4.18;1.52;;;23.50;34.40;;;;;;5079959;28;20453;-76